Winston-Salem, NC (27106)

9:00 PM EST on December 03, 2016 (GMT -0500)
Winston-Salem | | Change Station

Elev 0 ft 36.15 °N, 80.32 °W | Updated 7 minutes ago

Clear
Clear
45.7 °F
Feels Like 46 °F
N
0.0
Wind Variable Wind from North
Gusts 0.6 mph

Today
High -- | Low -- °F
--% Chance of Precip.
Yesterday
High -- | Low -- °F
Precip. -- in
Pressure 30.28 in
Visibility 10.0 miles
Clouds Clear
Windchill 46 °F
Dew Point 34 °F
Humidity 63%
Rainfall 0.00 in
Snow Depth Not available.
7:15 AM 5:06 PM
Waxing Crescent, 18% visible
METAR KINT 040154Z AUTO 01003KT 10SM CLR 07/M02 A3027 RMK AO2 SLP252 T00671022
Pressure 30.28 in
Visibility 10.0 miles
Clouds Clear
Windchill 46 °F
Dew Point 34 °F
Humidity 63%
Rainfall 0.00 in
Snow Depth Not available.
7:15 AM 5:06 PM
Waxing Crescent, 18% visible
METAR KINT 040154Z AUTO 01003KT 10SM CLR 07/M02 A3027 RMK AO2 SLP252 T00671022

10-Day Weather Forecast

Almanac

Astronomy

Dec. 03, 2016 Rise Set
Actual Time
Civil Twilight
Nautical Twilight
Astronomical Twilight
Moon
Length of Visible Light
Length of Day
Tomorrow will be .
, % of the Moon is Illuminated

Today's Extremes

State Highs State Lows

Community

WunderPhotos

Upload Photos

1,955,560 photos uploaded!

WunderBlog® & News

Nearby

Air Quality

  Air Quality AQ Index Pollutant
Not available.

Snow Depth

Station Depth Elevation

Earthquake Activity

City Distance Mag. Time & Date
Minimum magnitude displayed is 2.5.

Coastal Water Temperatures

Place Temperature

Stations

Nearby Weather Stations

Station Location Temp. Windchill Dew Point Humidity Wind Precip. Elev Updated Type
                   

Watches & Warnings

There are currently no watches in effect.